sensor_id;sensor_type;location;lat;lon;timestamp;P1;durP1;ratioP1;P2;durP2;ratioP2
75746;SDS011;70632;52.232;21.038;2024-03-07T00:00:44;31.92;;;13.75;;
75746;SDS011;70632;52.232;21.038;2024-03-07T00:03:29;27.48;;;12.40;;
75746;SDS011;70632;52.232;21.038;2024-03-07T00:05:55;26.30;;;12.68;;
75746;SDS011;70632;52.232;21.038;2024-03-07T00:08:20;27.70;;;13.07;;
75746;SDS011;70632;52.232;21.038;2024-03-07T00:10:46;28.15;;;14.00;;
75746;SDS011;70632;52.232;21.038;2024-03-07T00:13:12;26.98;;;12.32;;
75746;SDS011;70632;52.232;21.038;2024-03-07T00:15:38;29.75;;;14.07;;
75746;SDS011;70632;52.232;21.038;2024-03-07T00:18:05;32.65;;;14.13;;
75746;SDS011;70632;52.232;21.038;2024-03-07T00:20:31;29.05;;;14.05;;
75746;SDS011;70632;52.232;21.038;2024-03-07T00:22:57;27.38;;;13.68;;
75746;SDS011;70632;52.232;21.038;2024-03-07T00:25:22;26.42;;;14.07;;
75746;SDS011;70632;52.232;21.038;2024-03-07T00:27:48;31.77;;;14.50;;
75746;SDS011;70632;52.232;21.038;2024-03-07T00:30:14;32.75;;;13.90;;
75746;SDS011;70632;52.232;21.038;2024-03-07T00:32:44;33.75;;;14.60;;
75746;SDS011;70632;52.232;21.038;2024-03-07T00:35:10;33.25;;;15.32;;
75746;SDS011;70632;52.232;21.038;2024-03-07T00:37:35;29.55;;;14.38;;
75746;SDS011;70632;52.232;21.038;2024-03-07T00:40:01;27.55;;;12.98;;
75746;SDS011;70632;52.232;21.038;2024-03-07T00:42:27;31.00;;;14.32;;
75746;SDS011;70632;52.232;21.038;2024-03-07T00:44:54;26.70;;;13.40;;
75746;SDS011;70632;52.232;21.038;2024-03-07T00:47:19;27.77;;;13.00;;
75746;SDS011;70632;52.232;21.038;2024-03-07T00:49:45;29.75;;;13.15;;
75746;SDS011;70632;52.232;21.038;2024-03-07T00:52:12;31.20;;;14.55;;
75746;SDS011;70632;52.232;21.038;2024-03-07T00:54:37;29.27;;;12.60;;
75746;SDS011;70632;52.232;21.038;2024-03-07T00:57:03;26.65;;;12.48;;
75746;SDS011;70632;52.232;21.038;2024-03-07T00:59:29;27.80;;;13.55;;
75746;SDS011;70632;52.232;21.038;2024-03-07T01:01:55;25.90;;;12.88;;
75746;SDS011;70632;52.232;21.038;2024-03-07T01:04:20;29.38;;;13.50;;
75746;SDS011;70632;52.232;21.038;2024-03-07T01:06:47;29.70;;;13.45;;
75746;SDS011;70632;52.232;21.038;2024-03-07T01:09:13;32.80;;;13.05;;
75746;SDS011;70632;52.232;21.038;2024-03-07T01:11:44;27.15;;;12.55;;
75746;SDS011;70632;52.232;21.038;2024-03-07T01:14:10;30.83;;;12.90;;
75746;SDS011;70632;52.232;21.038;2024-03-07T01:16:36;28.33;;;12.82;;
75746;SDS011;70632;52.232;21.038;2024-03-07T01:19:01;27.42;;;13.55;;
75746;SDS011;70632;52.232;21.038;2024-03-07T01:21:27;32.47;;;14.55;;
75746;SDS011;70632;52.232;21.038;2024-03-07T01:23:53;27.13;;;11.85;;
75746;SDS011;70632;52.232;21.038;2024-03-07T01:26:19;29.05;;;13.02;;
75746;SDS011;70632;52.232;21.038;2024-03-07T01:28:44;29.35;;;13.63;;
75746;SDS011;70632;52.232;21.038;2024-03-07T01:31:10;31.20;;;13.75;;
75746;SDS011;70632;52.232;21.038;2024-03-07T01:33:35;30.00;;;13.60;;
75746;SDS011;70632;52.232;21.038;2024-03-07T01:36:01;22.85;;;12.35;;
75746;SDS011;70632;52.232;21.038;2024-03-07T01:38:26;29.92;;;13.55;;
75746;SDS011;70632;52.232;21.038;2024-03-07T01:40:52;30.88;;;13.40;;
75746;SDS011;70632;52.232;21.038;2024-03-07T01:43:17;27.40;;;13.02;;
75746;SDS011;70632;52.232;21.038;2024-03-07T01:45:43;32.05;;;13.85;;
75746;SDS011;70632;52.232;21.038;2024-03-07T01:48:20;24.67;;;11.63;;
75746;SDS011;70632;52.232;21.038;2024-03-07T01:50:49;31.98;;;14.27;;
75746;SDS011;70632;52.232;21.038;2024-03-07T01:53:15;27.65;;;12.65;;
75746;SDS011;70632;52.232;21.038;2024-03-07T01:55:41;31.30;;;12.73;;
75746;SDS011;70632;52.232;21.038;2024-03-07T01:58:09;28.58;;;13.15;;
75746;SDS011;70632;52.232;21.038;2024-03-07T02:00:37;29.60;;;12.75;;
75746;SDS011;70632;52.232;21.038;2024-03-07T02:03:03;32.83;;;14.00;;
75746;SDS011;70632;52.232;21.038;2024-03-07T02:05:28;26.88;;;13.05;;
75746;SDS011;70632;52.232;21.038;2024-03-07T02:07:54;27.77;;;13.35;;
75746;SDS011;70632;52.232;21.038;2024-03-07T02:10:20;31.00;;;12.82;;
75746;SDS011;70632;52.232;21.038;2024-03-07T02:12:45;29.13;;;13.65;;
75746;SDS011;70632;52.232;21.038;2024-03-07T02:15:11;28.13;;;12.20;;
75746;SDS011;70632;52.232;21.038;2024-03-07T02:17:39;30.27;;;13.57;;
75746;SDS011;70632;52.232;21.038;2024-03-07T02:20:05;30.25;;;13.10;;
75746;SDS011;70632;52.232;21.038;2024-03-07T02:22:33;24.52;;;12.20;;
75746;SDS011;70632;52.232;21.038;2024-03-07T02:24:58;31.05;;;13.93;;
75746;SDS011;70632;52.232;21.038;2024-03-07T02:27:24;27.65;;;12.45;;
75746;SDS011;70632;52.232;21.038;2024-03-07T02:29:50;28.42;;;11.50;;
75746;SDS011;70632;52.232;21.038;2024-03-07T02:32:16;36.38;;;14.82;;
75746;SDS011;70632;52.232;21.038;2024-03-07T02:34:43;27.67;;;13.43;;
75746;SDS011;70632;52.232;21.038;2024-03-07T02:37:08;28.83;;;12.88;;
75746;SDS011;70632;52.232;21.038;2024-03-07T02:39:38;26.02;;;13.20;;
75746;SDS011;70632;52.232;21.038;2024-03-07T02:42:03;30.67;;;13.73;;
75746;SDS011;70632;52.232;21.038;2024-03-07T02:44:29;27.73;;;12.65;;
75746;SDS011;70632;52.232;21.038;2024-03-07T02:46:57;25.40;;;12.48;;
75746;SDS011;70632;52.232;21.038;2024-03-07T02:49:22;30.50;;;14.65;;
75746;SDS011;70632;52.232;21.038;2024-03-07T02:51:48;30.70;;;13.40;;
75746;SDS011;70632;52.232;21.038;2024-03-07T02:54:13;32.97;;;14.77;;
75746;SDS011;70632;52.232;21.038;2024-03-07T02:56:39;27.90;;;13.85;;
75746;SDS011;70632;52.232;21.038;2024-03-07T02:59:05;31.55;;;14.43;;
75746;SDS011;70632;52.232;21.038;2024-03-07T03:01:31;33.00;;;13.73;;
75746;SDS011;70632;52.232;21.038;2024-03-07T03:03:57;34.47;;;14.52;;
75746;SDS011;70632;52.232;21.038;2024-03-07T03:06:23;30.65;;;12.52;;
75746;SDS011;70632;52.232;21.038;2024-03-07T03:08:48;31.73;;;13.88;;
75746;SDS011;70632;52.232;21.038;2024-03-07T03:11:14;27.65;;;13.88;;
75746;SDS011;70632;52.232;21.038;2024-03-07T03:13:40;30.58;;;13.50;;
75746;SDS011;70632;52.232;21.038;2024-03-07T03:16:05;27.58;;;12.43;;
75746;SDS011;70632;52.232;21.038;2024-03-07T03:18:35;29.13;;;12.55;;
75746;SDS011;70632;52.232;21.038;2024-03-07T03:21:01;30.13;;;12.85;;
75746;SDS011;70632;52.232;21.038;2024-03-07T03:23:27;32.10;;;13.60;;
75746;SDS011;70632;52.232;21.038;2024-03-07T03:25:53;31.88;;;13.95;;
75746;SDS011;70632;52.232;21.038;2024-03-07T03:28:19;29.90;;;13.55;;
75746;SDS011;70632;52.232;21.038;2024-03-07T03:30:46;30.38;;;13.32;;
75746;SDS011;70632;52.232;21.038;2024-03-07T03:33:12;29.50;;;13.25;;
75746;SDS011;70632;52.232;21.038;2024-03-07T03:35:38;29.02;;;12.63;;
75746;SDS011;70632;52.232;21.038;2024-03-07T03:38:04;29.13;;;13.27;;
75746;SDS011;70632;52.232;21.038;2024-03-07T03:40:29;32.42;;;14.32;;
75746;SDS011;70632;52.232;21.038;2024-03-07T03:42:55;29.17;;;13.45;;
75746;SDS011;70632;52.232;21.038;2024-03-07T03:45:21;30.13;;;13.57;;
75746;SDS011;70632;52.232;21.038;2024-03-07T03:47:47;32.90;;;13.18;;
75746;SDS011;70632;52.232;21.038;2024-03-07T03:50:13;32.08;;;12.73;;
75746;SDS011;70632;52.232;21.038;2024-03-07T03:52:42;31.70;;;13.15;;
75746;SDS011;70632;52.232;21.038;2024-03-07T03:55:08;27.88;;;12.23;;
75746;SDS011;70632;52.232;21.038;2024-03-07T03:57:40;30.30;;;12.50;;
75746;SDS011;70632;52.232;21.038;2024-03-07T04:00:06;29.02;;;12.48;;
75746;SDS011;70632;52.232;21.038;2024-03-07T04:02:44;29.90;;;12.10;;
75746;SDS011;70632;52.232;21.038;2024-03-07T04:05:13;31.67;;;12.77;;
75746;SDS011;70632;52.232;21.038;2024-03-07T04:07:39;29.85;;;13.23;;
75746;SDS011;70632;52.232;21.038;2024-03-07T04:10:05;36.25;;;12.93;;
75746;SDS011;70632;52.232;21.038;2024-03-07T04:12:34;30.08;;;12.57;;
75746;SDS011;70632;52.232;21.038;2024-03-07T04:15:00;32.60;;;12.85;;
75746;SDS011;70632;52.232;21.038;2024-03-07T04:17:26;27.70;;;13.18;;
75746;SDS011;70632;52.232;21.038;2024-03-07T04:19:52;37.78;;;14.32;;
75746;SDS011;70632;52.232;21.038;2024-03-07T04:22:17;27.98;;;11.75;;
75746;SDS011;70632;52.232;21.038;2024-03-07T04:24:46;29.92;;;12.35;;
75746;SDS011;70632;52.232;21.038;2024-03-07T04:27:13;30.33;;;12.90;;
75746;SDS011;70632;52.232;21.038;2024-03-07T04:29:39;29.60;;;13.32;;
75746;SDS011;70632;52.232;21.038;2024-03-07T04:32:04;29.77;;;12.90;;
75746;SDS011;70632;52.232;21.038;2024-03-07T04:34:30;30.63;;;12.35;;
75746;SDS011;70632;52.232;21.038;2024-03-07T04:36:59;34.22;;;14.50;;
75746;SDS011;70632;52.232;21.038;2024-03-07T04:39:29;34.03;;;13.27;;
75746;SDS011;70632;52.232;21.038;2024-03-07T04:42:01;30.00;;;12.60;;
75746;SDS011;70632;52.232;21.038;2024-03-07T04:44:30;29.70;;;12.70;;
75746;SDS011;70632;52.232;21.038;2024-03-07T04:47:03;29.52;;;13.63;;
75746;SDS011;70632;52.232;21.038;2024-03-07T04:49:30;27.48;;;11.68;;
75746;SDS011;70632;52.232;21.038;2024-03-07T04:51:56;32.80;;;12.55;;
75746;SDS011;70632;52.232;21.038;2024-03-07T04:54:23;32.05;;;12.90;;
75746;SDS011;70632;52.232;21.038;2024-03-07T04:56:49;28.63;;;12.55;;
75746;SDS011;70632;52.232;21.038;2024-03-07T04:59:16;27.77;;;13.00;;
75746;SDS011;70632;52.232;21.038;2024-03-07T05:01:42;33.85;;;12.82;;
75746;SDS011;70632;52.232;21.038;2024-03-07T05:04:08;26.70;;;11.63;;
75746;SDS011;70632;52.232;21.038;2024-03-07T05:06:33;28.90;;;11.20;;
75746;SDS011;70632;52.232;21.038;2024-03-07T05:09:03;28.75;;;13.55;;
75746;SDS011;70632;52.232;21.038;2024-03-07T05:11:31;33.30;;;13.15;;
75746;SDS011;70632;52.232;21.038;2024-03-07T05:13:57;33.83;;;13.43;;
75746;SDS011;70632;52.232;21.038;2024-03-07T05:16:26;31.23;;;12.05;;
75746;SDS011;70632;52.232;21.038;2024-03-07T05:18:51;31.60;;;12.30;;
75746;SDS011;70632;52.232;21.038;2024-03-07T05:21:20;31.83;;;12.77;;
75746;SDS011;70632;52.232;21.038;2024-03-07T05:24:01;32.83;;;13.48;;
75746;SDS011;70632;52.232;21.038;2024-03-07T05:26:28;29.60;;;12.40;;
75746;SDS011;70632;52.232;21.038;2024-03-07T05:28:55;34.40;;;13.38;;
75746;SDS011;70632;52.232;21.038;2024-03-07T05:31:21;34.92;;;12.15;;
75746;SDS011;70632;52.232;21.038;2024-03-07T05:33:47;29.83;;;12.48;;
75746;SDS011;70632;52.232;21.038;2024-03-07T05:36:12;32.63;;;12.48;;
75746;SDS011;70632;52.232;21.038;2024-03-07T05:38:41;25.08;;;11.52;;
75746;SDS011;70632;52.232;21.038;2024-03-07T05:41:09;34.17;;;11.52;;
75746;SDS011;70632;52.232;21.038;2024-03-07T05:43:36;32.22;;;12.98;;
75746;SDS011;70632;52.232;21.038;2024-03-07T05:46:02;34.80;;;12.10;;
75746;SDS011;70632;52.232;21.038;2024-03-07T05:48:28;32.20;;;12.85;;
75746;SDS011;70632;52.232;21.038;2024-03-07T05:50:53;35.22;;;13.15;;
75746;SDS011;70632;52.232;21.038;2024-03-07T05:53:19;31.10;;;12.18;;
75746;SDS011;70632;52.232;21.038;2024-03-07T05:55:45;27.02;;;11.38;;
75746;SDS011;70632;52.232;21.038;2024-03-07T05:58:11;29.40;;;11.55;;
75746;SDS011;70632;52.232;21.038;2024-03-07T06:00:36;26.58;;;12.30;;
75746;SDS011;70632;52.232;21.038;2024-03-07T06:03:06;29.15;;;13.93;;
75746;SDS011;70632;52.232;21.038;2024-03-07T06:05:33;34.13;;;12.18;;
75746;SDS011;70632;52.232;21.038;2024-03-07T06:07:59;25.70;;;11.90;;
75746;SDS011;70632;52.232;21.038;2024-03-07T06:10:24;27.50;;;11.77;;
75746;SDS011;70632;52.232;21.038;2024-03-07T06:12:53;28.75;;;12.32;;
75746;SDS011;70632;52.232;21.038;2024-03-07T06:15:18;26.52;;;11.35;;
75746;SDS011;70632;52.232;21.038;2024-03-07T06:17:44;28.38;;;11.68;;
75746;SDS011;70632;52.232;21.038;2024-03-07T06:20:14;24.80;;;11.10;;
75746;SDS011;70632;52.232;21.038;2024-03-07T06:22:50;22.35;;;11.48;;
75746;SDS011;70632;52.232;21.038;2024-03-07T06:25:16;23.45;;;10.60;;
75746;SDS011;70632;52.232;21.038;2024-03-07T06:27:46;27.10;;;11.70;;
75746;SDS011;70632;52.232;21.038;2024-03-07T06:30:15;27.23;;;11.02;;
75746;SDS011;70632;52.232;21.038;2024-03-07T06:32:43;25.38;;;11.02;;
75746;SDS011;70632;52.232;21.038;2024-03-07T06:35:09;27.55;;;12.40;;
75746;SDS011;70632;52.232;21.038;2024-03-07T06:37:35;25.58;;;11.90;;
75746;SDS011;70632;52.232;21.038;2024-03-07T06:40:01;24.02;;;11.07;;
75746;SDS011;70632;52.232;21.038;2024-03-07T06:42:30;26.65;;;10.85;;
75746;SDS011;70632;52.232;21.038;2024-03-07T06:44:58;25.42;;;9.45;;
75746;SDS011;70632;52.232;21.038;2024-03-07T06:47:23;25.88;;;11.32;;
75746;SDS011;70632;52.232;21.038;2024-03-07T06:49:50;25.60;;;11.35;;
75746;SDS011;70632;52.232;21.038;2024-03-07T06:52:18;28.85;;;11.15;;
75746;SDS011;70632;52.232;21.038;2024-03-07T06:54:43;22.20;;;10.07;;
75746;SDS011;70632;52.232;21.038;2024-03-07T06:57:09;29.40;;;11.98;;
75746;SDS011;70632;52.232;21.038;2024-03-07T06:59:34;21.27;;;10.57;;
75746;SDS011;70632;52.232;21.038;2024-03-07T07:02:02;21.70;;;9.75;;
75746;SDS011;70632;52.232;21.038;2024-03-07T07:04:28;26.40;;;11.88;;
75746;SDS011;70632;52.232;21.038;2024-03-07T07:07:07;22.25;;;11.10;;
75746;SDS011;70632;52.232;21.038;2024-03-07T07:09:33;23.75;;;10.02;;
75746;SDS011;70632;52.232;21.038;2024-03-07T07:12:00;21.88;;;10.15;;
75746;SDS011;70632;52.232;21.038;2024-03-07T07:14:28;20.15;;;10.40;;
75746;SDS011;70632;52.232;21.038;2024-03-07T07:16:54;20.10;;;10.50;;
75746;SDS011;70632;52.232;21.038;2024-03-07T07:19:21;21.52;;;9.43;;
75746;SDS011;70632;52.232;21.038;2024-03-07T07:21:47;26.05;;;10.48;;
75746;SDS011;70632;52.232;21.038;2024-03-07T07:24:15;23.17;;;9.77;;
75746;SDS011;70632;52.232;21.038;2024-03-07T07:26:40;24.52;;;9.55;;
75746;SDS011;70632;52.232;21.038;2024-03-07T07:29:06;20.10;;;9.40;;
75746;SDS011;70632;52.232;21.038;2024-03-07T07:31:32;20.92;;;9.75;;
75746;SDS011;70632;52.232;21.038;2024-03-07T07:33:57;23.13;;;9.98;;
75746;SDS011;70632;52.232;21.038;2024-03-07T07:36:23;24.50;;;9.93;;
75746;SDS011;70632;52.232;21.038;2024-03-07T07:38:49;18.75;;;8.90;;
75746;SDS011;70632;52.232;21.038;2024-03-07T07:41:14;23.63;;;9.63;;
75746;SDS011;70632;52.232;21.038;2024-03-07T07:43:40;24.10;;;9.88;;
75746;SDS011;70632;52.232;21.038;2024-03-07T07:46:06;20.95;;;9.73;;
75746;SDS011;70632;52.232;21.038;2024-03-07T07:48:32;17.95;;;8.38;;
75746;SDS011;70632;52.232;21.038;2024-03-07T07:50:58;19.20;;;9.05;;
75746;SDS011;70632;52.232;21.038;2024-03-07T07:53:23;17.45;;;8.45;;
75746;SDS011;70632;52.232;21.038;2024-03-07T07:55:49;19.10;;;8.95;;
75746;SDS011;70632;52.232;21.038;2024-03-07T07:58:15;15.70;;;7.80;;
75746;SDS011;70632;52.232;21.038;2024-03-07T08:00:40;16.02;;;7.55;;
75746;SDS011;70632;52.232;21.038;2024-03-07T08:03:09;17.00;;;7.80;;
75746;SDS011;70632;52.232;21.038;2024-03-07T08:05:36;19.02;;;9.02;;
75746;SDS011;70632;52.232;21.038;2024-03-07T08:08:02;18.20;;;8.05;;
75746;SDS011;70632;52.232;21.038;2024-03-07T08:10:30;16.42;;;8.20;;
75746;SDS011;70632;52.232;21.038;2024-03-07T08:12:59;15.15;;;7.78;;
75746;SDS011;70632;52.232;21.038;2024-03-07T08:15:25;14.77;;;7.45;;
75746;SDS011;70632;52.232;21.038;2024-03-07T08:17:51;14.15;;;8.55;;
75746;SDS011;70632;52.232;21.038;2024-03-07T08:20:18;15.75;;;8.07;;
75746;SDS011;70632;52.232;21.038;2024-03-07T08:22:44;15.70;;;9.02;;
75746;SDS011;70632;52.232;21.038;2024-03-07T08:25:13;20.52;;;7.93;;
75746;SDS011;70632;52.232;21.038;2024-03-07T08:27:41;13.82;;;7.30;;
75746;SDS011;70632;52.232;21.038;2024-03-07T08:30:07;13.35;;;7.63;;
75746;SDS011;70632;52.232;21.038;2024-03-07T08:32:36;17.05;;;8.90;;
75746;SDS011;70632;52.232;21.038;2024-03-07T08:35:05;14.55;;;8.27;;
75746;SDS011;70632;52.232;21.038;2024-03-07T08:37:41;13.57;;;7.97;;
75746;SDS011;70632;52.232;21.038;2024-03-07T08:40:08;16.08;;;8.05;;
75746;SDS011;70632;52.232;21.038;2024-03-07T08:42:36;14.52;;;8.57;;
75746;SDS011;70632;52.232;21.038;2024-03-07T08:45:02;14.88;;;8.25;;
75746;SDS011;70632;52.232;21.038;2024-03-07T08:47:33;14.80;;;8.65;;
75746;SDS011;70632;52.232;21.038;2024-03-07T08:49:59;14.50;;;8.48;;
75746;SDS011;70632;52.232;21.038;2024-03-07T08:52:25;16.80;;;8.77;;
75746;SDS011;70632;52.232;21.038;2024-03-07T08:54:51;13.13;;;7.65;;
75746;SDS011;70632;52.232;21.038;2024-03-07T08:57:16;14.68;;;7.65;;
75746;SDS011;70632;52.232;21.038;2024-03-07T08:59:43;12.25;;;7.15;;
75746;SDS011;70632;52.232;21.038;2024-03-07T09:02:09;12.43;;;7.47;;
75746;SDS011;70632;52.232;21.038;2024-03-07T09:04:36;13.48;;;7.90;;
75746;SDS011;70632;52.232;21.038;2024-03-07T09:07:01;13.13;;;7.63;;
75746;SDS011;70632;52.232;21.038;2024-03-07T09:09:27;11.88;;;6.43;;
75746;SDS011;70632;52.232;21.038;2024-03-07T09:11:53;13.02;;;7.38;;
75746;SDS011;70632;52.232;21.038;2024-03-07T09:14:18;12.75;;;6.32;;
75746;SDS011;70632;52.232;21.038;2024-03-07T09:16:44;10.48;;;6.10;;
75746;SDS011;70632;52.232;21.038;2024-03-07T09:19:10;19.08;;;7.10;;
75746;SDS011;70632;52.232;21.038;2024-03-07T09:21:39;10.93;;;6.80;;
75746;SDS011;70632;52.232;21.038;2024-03-07T09:24:06;14.02;;;7.43;;
75746;SDS011;70632;52.232;21.038;2024-03-07T09:26:33;14.45;;;7.30;;
75746;SDS011;70632;52.232;21.038;2024-03-07T09:28:59;12.77;;;6.80;;
75746;SDS011;70632;52.232;21.038;2024-03-07T09:31:31;12.15;;;7.13;;
75746;SDS011;70632;52.232;21.038;2024-03-07T09:33:57;10.82;;;6.32;;
75746;SDS011;70632;52.232;21.038;2024-03-07T09:36:26;9.40;;;6.32;;
75746;SDS011;70632;52.232;21.038;2024-03-07T09:41:18;15.05;;;6.90;;
75746;SDS011;70632;52.232;21.038;2024-03-07T09:43:46;11.88;;;6.30;;
75746;SDS011;70632;52.232;21.038;2024-03-07T09:46:13;12.98;;;7.55;;
75746;SDS011;70632;52.232;21.038;2024-03-07T09:48:39;10.50;;;7.65;;
75746;SDS011;70632;52.232;21.038;2024-03-07T09:51:05;13.63;;;8.18;;
75746;SDS011;70632;52.232;21.038;2024-03-07T09:53:33;11.13;;;7.53;;
75746;SDS011;70632;52.232;21.038;2024-03-07T09:55:59;11.30;;;7.32;;
75746;SDS011;70632;52.232;21.038;2024-03-07T09:58:25;10.98;;;7.35;;
75746;SDS011;70632;52.232;21.038;2024-03-07T10:00:55;11.48;;;7.28;;
75746;SDS011;70632;52.232;21.038;2024-03-07T10:03:21;14.05;;;7.57;;
75746;SDS011;70632;52.232;21.038;2024-03-07T10:05:49;12.43;;;7.35;;
75746;SDS011;70632;52.232;21.038;2024-03-07T10:08:15;13.45;;;8.85;;
75746;SDS011;70632;52.232;21.038;2024-03-07T10:10:44;14.20;;;7.60;;
75746;SDS011;70632;52.232;21.038;2024-03-07T10:13:09;11.30;;;7.20;;
75746;SDS011;70632;52.232;21.038;2024-03-07T10:15:35;12.68;;;8.27;;
75746;SDS011;70632;52.232;21.038;2024-03-07T10:18:01;10.30;;;7.20;;
75746;SDS011;70632;52.232;21.038;2024-03-07T10:20:27;12.60;;;7.55;;
75746;SDS011;70632;52.232;21.038;2024-03-07T10:22:53;10.40;;;7.43;;
75746;SDS011;70632;52.232;21.038;2024-03-07T10:25:20;12.00;;;7.40;;
75746;SDS011;70632;52.232;21.038;2024-03-07T10:27:47;11.82;;;7.47;;
75746;SDS011;70632;52.232;21.038;2024-03-07T10:30:15;11.02;;;7.70;;
75746;SDS011;70632;52.232;21.038;2024-03-07T10:32:46;13.85;;;7.93;;
75746;SDS011;70632;52.232;21.038;2024-03-07T10:35:12;9.93;;;6.82;;
75746;SDS011;70632;52.232;21.038;2024-03-07T10:37:40;10.70;;;6.45;;
75746;SDS011;70632;52.232;21.038;2024-03-07T10:40:06;11.57;;;6.95;;
75746;SDS011;70632;52.232;21.038;2024-03-07T10:42:46;11.68;;;6.55;;
75746;SDS011;70632;52.232;21.038;2024-03-07T10:45:15;11.90;;;7.10;;
75746;SDS011;70632;52.232;21.038;2024-03-07T10:47:42;10.30;;;6.85;;
75746;SDS011;70632;52.232;21.038;2024-03-07T10:52:52;13.85;;;7.68;;
75746;SDS011;70632;52.232;21.038;2024-03-07T10:55:37;11.80;;;7.30;;
75746;SDS011;70632;52.232;21.038;2024-03-07T10:58:37;14.25;;;7.13;;
75746;SDS011;70632;52.232;21.038;2024-03-07T11:00:56;12.43;;;6.65;;
75746;SDS011;70632;52.232;21.038;2024-03-07T11:03:23;11.35;;;6.88;;
75746;SDS011;70632;52.232;21.038;2024-03-07T11:05:49;10.95;;;7.32;;
75746;SDS011;70632;52.232;21.038;2024-03-07T11:08:15;10.93;;;7.30;;
75746;SDS011;70632;52.232;21.038;2024-03-07T11:10:41;11.05;;;7.43;;
75746;SDS011;70632;52.232;21.038;2024-03-07T11:13:08;10.75;;;7.53;;
75746;SDS011;70632;52.232;21.038;2024-03-07T11:15:38;10.57;;;6.88;;
75746;SDS011;70632;52.232;21.038;2024-03-07T11:18:04;12.68;;;8.05;;
75746;SDS011;70632;52.232;21.038;2024-03-07T11:20:34;14.02;;;8.98;;
75746;SDS011;70632;52.232;21.038;2024-03-07T11:22:59;13.23;;;7.70;;
75746;SDS011;70632;52.232;21.038;2024-03-07T11:25:26;12.13;;;7.88;;
75746;SDS011;70632;52.232;21.038;2024-03-07T11:30:19;13.00;;;7.85;;
75746;SDS011;70632;52.232;21.038;2024-03-07T11:32:46;10.80;;;7.03;;
75746;SDS011;70632;52.232;21.038;2024-03-07T11:35:14;16.08;;;7.88;;
75746;SDS011;70632;52.232;21.038;2024-03-07T11:37:40;14.52;;;8.35;;
75746;SDS011;70632;52.232;21.038;2024-03-07T11:40:09;12.82;;;8.05;;
75746;SDS011;70632;52.232;21.038;2024-03-07T11:42:49;16.17;;;7.55;;
75746;SDS011;70632;52.232;21.038;2024-03-07T11:45:15;13.27;;;7.25;;
75746;SDS011;70632;52.232;21.038;2024-03-07T11:47:59;14.48;;;7.88;;
75746;SDS011;70632;52.232;21.038;2024-03-07T11:50:45;13.88;;;6.88;;
75746;SDS011;70632;52.232;21.038;2024-03-07T11:53:11;13.10;;;7.22;;
75746;SDS011;70632;52.232;21.038;2024-03-07T11:55:37;14.43;;;7.70;;
75746;SDS011;70632;52.232;21.038;2024-03-07T11:58:16;13.93;;;7.35;;
75746;SDS011;70632;52.232;21.038;2024-03-07T12:00:43;12.07;;;7.00;;
75746;SDS011;70632;52.232;21.038;2024-03-07T12:03:12;13.40;;;7.03;;
75746;SDS011;70632;52.232;21.038;2024-03-07T12:05:39;11.25;;;5.93;;
75746;SDS011;70632;52.232;21.038;2024-03-07T12:08:05;13.50;;;5.88;;
75746;SDS011;70632;52.232;21.038;2024-03-07T12:10:31;12.07;;;6.88;;
75746;SDS011;70632;52.232;21.038;2024-03-07T12:12:56;17.83;;;7.50;;
75746;SDS011;70632;52.232;21.038;2024-03-07T12:15:23;13.15;;;6.70;;
75746;SDS011;70632;52.232;21.038;2024-03-07T12:17:48;10.07;;;6.47;;
75746;SDS011;70632;52.232;21.038;2024-03-07T12:20:15;13.35;;;6.30;;
75746;SDS011;70632;52.232;21.038;2024-03-07T12:23:11;12.88;;;5.68;;
75746;SDS011;70632;52.232;21.038;2024-03-07T12:25:40;15.32;;;7.63;;
75746;SDS011;70632;52.232;21.038;2024-03-07T12:30:34;13.98;;;6.60;;
75746;SDS011;70632;52.232;21.038;2024-03-07T12:33:01;11.70;;;6.50;;
75746;SDS011;70632;52.232;21.038;2024-03-07T12:37:54;17.55;;;7.25;;
75746;SDS011;70632;52.232;21.038;2024-03-07T12:40:21;12.75;;;6.53;;
75746;SDS011;70632;52.232;21.038;2024-03-07T12:42:51;11.45;;;5.80;;
75746;SDS011;70632;52.232;21.038;2024-03-07T12:45:19;9.63;;;5.90;;
75746;SDS011;70632;52.232;21.038;2024-03-07T12:47:47;9.85;;;5.35;;
75746;SDS011;70632;52.232;21.038;2024-03-07T12:50:17;10.65;;;5.75;;
75746;SDS011;70632;52.232;21.038;2024-03-07T12:52:43;9.77;;;6.03;;
75746;SDS011;70632;52.232;21.038;2024-03-07T12:55:08;13.55;;;6.60;;
75746;SDS011;70632;52.232;21.038;2024-03-07T12:57:34;10.93;;;6.63;;
75746;SDS011;70632;52.232;21.038;2024-03-07T12:59:59;10.63;;;6.03;;
75746;SDS011;70632;52.232;21.038;2024-03-07T13:02:25;13.10;;;6.55;;
75746;SDS011;70632;52.232;21.038;2024-03-07T13:04:55;11.68;;;6.70;;
75746;SDS011;70632;52.232;21.038;2024-03-07T13:07:20;10.77;;;5.97;;
75746;SDS011;70632;52.232;21.038;2024-03-07T13:09:46;12.10;;;6.13;;
75746;SDS011;70632;52.232;21.038;2024-03-07T13:12:13;12.45;;;6.50;;
75746;SDS011;70632;52.232;21.038;2024-03-07T13:14:40;11.85;;;6.82;;
75746;SDS011;70632;52.232;21.038;2024-03-07T13:17:05;11.93;;;6.10;;
75746;SDS011;70632;52.232;21.038;2024-03-07T13:19:34;10.82;;;5.68;;
75746;SDS011;70632;52.232;21.038;2024-03-07T13:22:03;10.13;;;5.50;;
75746;SDS011;70632;52.232;21.038;2024-03-07T13:24:31;11.48;;;6.60;;
75746;SDS011;70632;52.232;21.038;2024-03-07T13:26:56;10.40;;;5.82;;
75746;SDS011;70632;52.232;21.038;2024-03-07T13:29:22;11.15;;;6.18;;
75746;SDS011;70632;52.232;21.038;2024-03-07T13:31:50;11.10;;;6.22;;
75746;SDS011;70632;52.232;21.038;2024-03-07T13:34:16;11.02;;;5.75;;
75746;SDS011;70632;52.232;21.038;2024-03-07T13:36:42;11.40;;;6.05;;
75746;SDS011;70632;52.232;21.038;2024-03-07T13:39:08;12.55;;;7.18;;
75746;SDS011;70632;52.232;21.038;2024-03-07T13:41:43;12.07;;;5.78;;
75746;SDS011;70632;52.232;21.038;2024-03-07T13:44:10;11.43;;;5.80;;
75746;SDS011;70632;52.232;21.038;2024-03-07T13:46:36;12.93;;;6.30;;
75746;SDS011;70632;52.232;21.038;2024-03-07T13:49:03;11.18;;;6.47;;
75746;SDS011;70632;52.232;21.038;2024-03-07T13:51:41;11.05;;;6.10;;
75746;SDS011;70632;52.232;21.038;2024-03-07T13:54:16;11.38;;;6.05;;
75746;SDS011;70632;52.232;21.038;2024-03-07T13:57:08;10.77;;;5.80;;
75746;SDS011;70632;52.232;21.038;2024-03-07T14:05:08;9.65;;;5.45;;
75746;SDS011;70632;52.232;21.038;2024-03-07T14:07:50;10.88;;;5.88;;
75746;SDS011;70632;52.232;21.038;2024-03-07T14:10:42;18.73;;;7.45;;
75746;SDS011;70632;52.232;21.038;2024-03-07T14:24:05;13.35;;;6.93;;
75746;SDS011;70632;52.232;21.038;2024-03-07T14:26:39;11.95;;;6.40;;
75746;SDS011;70632;52.232;21.038;2024-03-07T14:29:26;13.25;;;6.90;;
75746;SDS011;70632;52.232;21.038;2024-03-07T14:31:53;11.20;;;6.57;;
75746;SDS011;70632;52.232;21.038;2024-03-07T14:36:49;22.83;;;8.23;;
75746;SDS011;70632;52.232;21.038;2024-03-07T14:39:15;15.02;;;7.88;;
75746;SDS011;70632;52.232;21.038;2024-03-07T14:42:01;13.55;;;6.32;;
75746;SDS011;70632;52.232;21.038;2024-03-07T14:44:27;15.05;;;7.30;;
75746;SDS011;70632;52.232;21.038;2024-03-07T14:46:55;14.88;;;7.07;;
75746;SDS011;70632;52.232;21.038;2024-03-07T14:49:22;12.85;;;6.75;;